Time;durP1;ratioP1;P1;durP2;ratioP2;P2;SDS_P1;SDS_P2;PMS_P1;PMS_P2;Temp;Humidity;BMP_temperature;BMP_pressure;BME280_temperature;BME280_humidity;BME280_pressure;Samples;Min_cycle;Max_cycle;Signal;HPM_P1;HPM_P2
2023/02/14 00:01:37;;;;;;;21.27;11.88;;;2.50;99.90;;;;;;5059270;28;20059;-79
2023/02/14 00:04:04;;;;;;;23.75;10.93;;;2.40;99.90;;;;;;5058667;28;20046;-79
2023/02/14 00:06:34;;;;;;;26.88;12.38;;;2.40;99.90;;;;;;5058101;28;20048;-78
2023/02/14 00:09:01;;;;;;;26.13;11.27;;;2.50;99.90;;;;;;5071896;28;20385;-79
2023/02/14 00:11:28;;;;;;;29.88;11.30;;;2.40;99.90;;;;;;5095125;28;20040;-79
2023/02/14 00:16:42;;;;;;;18.08;11.18;;;2.40;99.90;;;;;;5097914;28;20130;-78
2023/02/14 00:19:11;;;;;;;39.75;12.77;;;2.40;99.90;;;;;;5065044;28;20044;-79
2023/02/14 00:21:39;;;;;;;28.35;11.93;;;2.40;99.90;;;;;;5091252;28;20455;-78
2023/02/14 00:24:11;;;;;;;25.17;11.73;;;2.30;99.90;;;;;;5091577;28;20583;-78
2023/02/14 00:26:38;;;;;;;33.75;11.77;;;2.30;99.90;;;;;;5074687;28;20083;-78
2023/02/14 00:29:07;;;;;;;37.92;12.00;;;2.30;99.90;;;;;;5074955;28;20041;-79
2023/02/14 00:31:34;;;;;;;28.08;12.35;;;2.30;99.90;;;;;;5090715;28;20044;-79
2023/02/14 00:34:00;;;;;;;23.65;11.45;;;2.20;99.90;;;;;;5091159;28;20040;-79
2023/02/14 00:36:27;;;;;;;31.33;12.77;;;2.30;99.90;;;;;;5057871;28;20400;-79
2023/02/14 00:38:54;;;;;;;20.88;11.38;;;2.70;99.90;;;;;;5079761;28;20040;-78
2023/02/14 00:41:21;;;;;;;19.83;11.30;;;2.30;99.90;;;;;;5069293;28;20067;-79
2023/02/14 00:43:49;;;;;;;34.33;12.43;;;2.40;99.90;;;;;;5074693;28;20047;-78
2023/02/14 00:46:20;;;;;;;25.35;11.88;;;2.10;99.90;;;;;;5057752;28;20045;-78
2023/02/14 00:48:47;;;;;;;26.38;11.85;;;2.10;99.90;;;;;;5074882;28;20036;-78
2023/02/14 00:51:14;;;;;;;23.42;11.80;;;2.80;99.90;;;;;;5057575;28;20119;-78
2023/02/14 00:53:41;;;;;;;20.48;11.80;;;2.10;99.90;;;;;;5090842;28;20123;-78
2023/02/14 00:56:08;;;;;;;18.50;11.02;;;2.00;99.90;;;;;;5057859;28;20552;-79
2023/02/14 00:58:35;;;;;;;20.27;12.20;;;2.00;99.90;;;;;;5073421;28;20402;-78
2023/02/14 01:01:02;;;;;;;20.55;12.20;;;2.10;99.90;;;;;;5074737;28;20055;-79
2023/02/14 01:03:29;;;;;;;23.33;12.57;;;2.00;99.90;;;;;;5057827;28;20036;-79
2023/02/14 01:05:56;;;;;;;21.98;12.20;;;2.00;99.90;;;;;;5041462;28;20044;-79
2023/02/14 01:08:23;;;;;;;18.80;11.60;;;2.40;99.90;;;;;;5057155;28;20044;-78
2023/02/14 01:10:50;;;;;;;21.95;12.82;;;2.00;99.90;;;;;;5083730;28;20040;-79
2023/02/14 01:13:17;;;;;;;19.85;11.63;;;2.70;99.90;;;;;;5093439;28;20090;-79
2023/02/14 01:15:50;;;;;;;24.10;13.10;;;2.10;99.90;;;;;;5094449;28;20090;-78
2023/02/14 01:18:18;;;;;;;23.13;12.82;;;2.00;99.90;;;;;;5093933;28;20109;-78
2023/02/14 01:20:45;;;;;;;25.88;12.27;;;1.90;99.90;;;;;;5110791;28;20036;-78
2023/02/14 01:23:11;;;;;;;22.75;13.07;;;2.00;99.90;;;;;;5076725;28;20071;-78
2023/02/14 01:25:39;;;;;;;26.20;13.07;;;1.90;99.90;;;;;;5076825;28;20039;-78
2023/02/14 01:28:06;;;;;;;22.67;12.75;;;2.40;99.90;;;;;;5093802;28;20556;-78
2023/02/14 01:30:32;;;;;;;25.80;14.38;;;1.90;99.90;;;;;;5108074;28;20036;-78
2023/02/14 01:32:59;;;;;;;23.15;13.13;;;1.90;99.90;;;;;;5073365;28;20041;-79
2023/02/14 01:35:26;;;;;;;23.65;12.75;;;2.00;99.90;;;;;;5040338;28;20402;-78
2023/02/14 01:37:53;;;;;;;22.15;12.82;;;1.80;99.90;;;;;;5057100;28;20411;-78
2023/02/14 01:40:20;;;;;;;25.25;13.00;;;2.50;99.90;;;;;;5073469;28;20099;-79
2023/02/14 01:42:47;;;;;;;23.92;12.98;;;1.80;99.90;;;;;;5074161;28;20062;-78
2023/02/14 01:45:20;;;;;;;21.42;12.15;;;1.60;99.90;;;;;;5093497;28;20040;-78
2023/02/14 01:47:52;;;;;;;24.58;13.00;;;1.80;99.90;;;;;;5093879;28;20115;-78
2023/02/14 01:50:28;;;;;;;24.88;13.00;;;1.70;99.90;;;;;;5110269;28;20036;-78
2023/02/14 01:52:57;;;;;;;;;;;2.60;99.90;;;;;;5093609;28;20040;-79
2023/02/14 01:55:29;;;;;;;22.55;12.55;;;2.20;99.90;;;;;;5109490;28;19916;-78
2023/02/14 01:58:01;;;;;;;22.05;12.10;;;1.70;99.90;;;;;;5092924;28;20098;-78
2023/02/14 02:03:14;;;;;;;23.50;12.27;;;2.30;99.90;;;;;;5082827;28;20425;-78
2023/02/14 02:05:47;;;;;;;24.30;12.63;;;1.60;99.90;;;;;;5072501;28;20044;-78
2023/02/14 02:08:14;;;;;;;24.73;12.45;;;1.60;99.90;;;;;;5072723;28;20036;-78
2023/02/14 02:10:41;;;;;;;21.10;12.18;;;1.60;99.90;;;;;;5072872;28;20033;-78
2023/02/14 02:13:13;;;;;;;20.60;12.30;;;1.50;99.90;;;;;;5082515;28;20058;-78
2023/02/14 02:16:02;;;;;;;22.20;12.60;;;1.50;99.90;;;;;;5092595;28;20063;-78
2023/02/14 02:18:32;;;;;;;19.55;11.30;;;1.40;99.90;;;;;;5109271;28;20082;-78
2023/02/14 02:21:12;;;;;;;24.40;12.70;;;1.50;99.90;;;;;;5109333;28;20097;-78
2023/02/14 02:24:21;;;;;;;23.63;12.48;;;1.40;99.90;;;;;;5092529;28;20051;-78
2023/02/14 02:26:59;;;;;;;24.92;12.57;;;1.40;99.90;;;;;;5092328;28;20130;-78
2023/02/14 02:29:50;;;;;;;23.67;12.07;;;1.50;99.90;;;;;;5109220;28;20409;-78
2023/02/14 02:32:44;;;;;;;22.27;11.65;;;1.40;99.90;;;;;;5109109;28;20471;-79
2023/02/14 02:35:14;;;;;;;24.05;12.90;;;1.40;99.90;;;;;;5072272;28;20515;-78
2023/02/14 02:38:05;;;;;;;22.15;12.38;;;1.40;99.90;;;;;;5088863;28;20114;-78
2023/02/14 02:41:01;;;;;;;21.10;11.88;;;1.30;99.90;;;;;;5088682;28;20044;-78
2023/02/14 02:43:39;;;;;;;23.83;12.80;;;1.40;99.90;;;;;;5072361;28;20033;-78
2023/02/14 02:55:17;;;;;;;24.00;12.30;;;1.30;99.90;;;;;;5088717;28;20135;-78
2023/02/14 02:57:45;;;;;;;21.88;11.25;;;1.30;99.90;;;;;;5085876;28;20413;-78
2023/02/14 03:00:15;;;;;;;22.23;11.05;;;1.30;99.90;;;;;;5075516;28;20059;-78
2023/02/14 03:05:33;;;;;;;23.48;12.07;;;1.20;99.90;;;;;;5108798;28;20130;-78
2023/02/14 03:08:00;;;;;;;19.90;11.30;;;1.20;99.90;;;;;;5092547;28;20092;-78
2023/02/14 03:10:30;;;;;;;21.63;12.15;;;1.20;99.90;;;;;;5072013;28;20041;-78
2023/02/14 03:13:45;;;;;;;21.30;12.32;;;1.20;99.90;;;;;;5091306;28;20735;-78
2023/02/14 03:16:34;;;;;;;22.40;11.60;;;1.20;99.90;;;;;;5108930;28;20040;-77
2023/02/14 03:19:21;;;;;;;25.33;13.18;;;1.20;99.90;;;;;;5090444;28;20058;-78
2023/02/14 03:21:59;;;;;;;23.45;12.18;;;1.20;99.90;;;;;;5088256;28;20489;-78
2023/02/14 03:24:45;;;;;;;23.35;11.50;;;1.10;99.90;;;;;;5086084;28;20127;-78
2023/02/14 03:27:36;;;;;;;25.67;13.00;;;1.10;99.90;;;;;;5092076;28;20104;-77
2023/02/14 03:30:25;;;;;;;26.88;12.98;;;1.10;99.90;;;;;;5091108;28;20557;-77
2023/02/14 03:33:10;;;;;;;27.90;13.85;;;1.10;99.90;;;;;;5091636;28;20043;-77
2023/02/14 03:36:11;;;;;;;24.17;12.52;;;1.10;99.90;;;;;;5093529;28;20044;-77
2023/02/14 03:39:09;;;;;;;23.88;12.48;;;1.10;99.90;;;;;;5095498;28;20043;-77
2023/02/14 03:41:58;;;;;;;24.42;12.00;;;1.20;99.90;;;;;;5095025;28;20051;-77
2023/02/14 03:44:28;;;;;;;25.45;13.25;;;1.20;99.90;;;;;;5075595;28;20083;-77
2023/02/14 03:47:04;;;;;;;25.48;12.70;;;1.20;99.90;;;;;;5091617;28;20500;-78
2023/02/14 03:49:38;;;;;;;27.95;13.75;;;1.20;99.90;;;;;;5092009;28;20098;-78
2023/02/14 03:52:08;;;;;;;28.58;13.52;;;1.50;99.90;;;;;;5076367;28;20067;-77
2023/02/14 03:54:36;;;;;;;29.60;13.80;;;1.20;99.90;;;;;;5095348;28;20154;-77
2023/02/14 03:57:41;;;;;;;27.08;13.10;;;1.70;99.90;;;;;;5095093;28;20126;-77
2023/02/14 04:00:08;;;;;;;26.35;13.50;;;1.20;99.90;;;;;;5096700;28;20040;-77
2023/02/14 04:02:57;;;;;;;22.95;12.52;;;1.20;99.90;;;;;;5077499;28;20044;-77
2023/02/14 04:05:26;;;;;;;24.73;13.40;;;1.20;99.90;;;;;;5074582;28;20041;-77
2023/02/14 04:07:56;;;;;;;26.70;14.07;;;1.20;99.90;;;;;;5091285;28;20032;-78
2023/02/14 04:10:25;;;;;;;24.23;13.00;;;1.10;99.90;;;;;;5091555;28;20080;-77
2023/02/14 04:12:52;;;;;;;28.38;13.73;;;1.10;99.90;;;;;;5076005;28;20531;-77
2023/02/14 04:15:19;;;;;;;27.00;13.40;;;1.20;99.90;;;;;;5074583;28;20040;-77
2023/02/14 04:20:34;;;;;;;25.17;13.13;;;1.20;99.90;;;;;;5077149;28;20539;-77
2023/02/14 04:23:00;;;;;;;25.80;12.73;;;1.10;99.90;;;;;;5087100;28;20097;-77
2023/02/14 04:25:27;;;;;;;27.15;13.50;;;1.10;99.90;;;;;;5094546;28;20040;-77
2023/02/14 04:27:54;;;;;;;27.10;13.75;;;1.10;99.90;;;;;;5094133;28;20551;-77
2023/02/14 04:30:21;;;;;;;24.30;12.82;;;1.00;99.90;;;;;;5078143;28;20082;-77
2023/02/14 04:32:48;;;;;;;27.45;12.75;;;1.20;99.90;;;;;;5074009;28;20041;-77
2023/02/14 04:35:15;;;;;;;26.77;12.65;;;1.00;99.90;;;;;;5090762;28;20401;-77
2023/02/14 04:37:42;;;;;;;29.75;12.93;;;1.10;99.90;;;;;;5090842;28;20036;-77
2023/02/14 04:40:09;;;;;;;30.08;13.05;;;1.00;99.90;;;;;;5090541;28;20090;-77
2023/02/14 04:42:36;;;;;;;24.45;12.73;;;1.10;99.90;;;;;;5057993;28;20052;-77
2023/02/14 04:45:03;;;;;;;27.48;12.80;;;1.10;99.90;;;;;;5073864;28;20493;-77
2023/02/14 04:47:30;;;;;;;28.20;12.75;;;1.10;99.90;;;;;;5073783;28;20041;-77
2023/02/14 04:49:56;;;;;;;27.35;13.20;;;1.10;99.90;;;;;;5073937;28;20044;-77
2023/02/14 04:52:23;;;;;;;27.45;12.88;;;1.10;99.90;;;;;;5071849;28;20374;-77
2023/02/14 04:54:50;;;;;;;28.98;13.73;;;1.10;99.90;;;;;;5069715;28;20040;-78
2023/02/14 04:57:17;;;;;;;29.65;12.90;;;1.40;99.90;;;;;;5056323;28;20039;-78
2023/02/14 04:59:43;;;;;;;30.45;13.77;;;1.80;99.90;;;;;;5099839;28;20066;-77
2023/02/14 05:02:10;;;;;;;25.55;12.57;;;1.00;99.90;;;;;;5094266;28;20056;-77
2023/02/14 05:04:37;;;;;;;26.35;13.18;;;1.00;99.90;;;;;;5077867;28;20047;-77
2023/02/14 05:07:03;;;;;;;29.85;13.80;;;1.00;99.90;;;;;;5093267;28;20044;-77
2023/02/14 05:09:30;;;;;;;25.33;12.57;;;1.00;99.90;;;;;;5093715;28;20039;-77
2023/02/14 05:11:57;;;;;;;30.98;13.25;;;1.00;99.90;;;;;;5095316;28;20044;-77
2023/02/14 05:14:24;;;;;;;25.15;12.45;;;1.00;99.90;;;;;;5090213;28;20504;-77
2023/02/14 05:16:50;;;;;;;28.55;13.13;;;1.20;99.90;;;;;;5057256;28;20511;-77
2023/02/14 05:19:17;;;;;;;27.50;12.93;;;1.00;99.90;;;;;;5057159;28;20063;-77
2023/02/14 05:21:44;;;;;;;26.55;12.93;;;1.00;99.90;;;;;;5058175;28;20067;-78
2023/02/14 05:24:10;;;;;;;27.42;12.38;;;1.00;99.90;;;;;;5073213;28;20090;-77
2023/02/14 05:26:37;;;;;;;28.88;12.90;;;1.00;99.90;;;;;;5056724;28;20098;-77
2023/02/14 05:29:04;;;;;;;24.60;11.93;;;1.00;99.90;;;;;;5056578;28;20032;-77
2023/02/14 05:31:30;;;;;;;28.27;12.63;;;1.00;99.90;;;;;;5079212;28;20067;-77
2023/02/14 05:33:57;;;;;;;26.83;13.05;;;1.70;99.90;;;;;;5092881;28;20085;-77
2023/02/14 05:36:24;;;;;;;29.17;12.75;;;1.10;99.90;;;;;;5109984;28;20123;-78
2023/02/14 05:38:51;;;;;;;26.35;12.52;;;1.00;99.90;;;;;;5093601;28;20040;-77
2023/02/14 05:41:17;;;;;;;29.98;13.40;;;1.70;99.90;;;;;;5108156;28;20076;-78
2023/02/14 05:43:44;;;;;;;29.75;12.18;;;1.60;99.90;;;;;;5080939;28;20047;-77
2023/02/14 05:46:11;;;;;;;29.83;14.07;;;1.00;99.90;;;;;;5088212;28;20032;-77
2023/02/14 05:48:37;;;;;;;30.50;13.43;;;1.00;99.90;;;;;;5077777;28;20492;-77
2023/02/14 05:51:06;;;;;;;25.48;12.73;;;1.10;99.90;;;;;;5081501;28;20074;-77
2023/02/14 05:53:33;;;;;;;28.77;13.25;;;1.00;99.90;;;;;;5075205;28;20505;-77
2023/02/14 05:56:00;;;;;;;27.45;13.25;;;0.90;99.90;;;;;;5078935;28;20113;-77
2023/02/14 05:58:27;;;;;;;26.83;12.07;;;1.00;99.90;;;;;;5092659;28;20079;-77
2023/02/14 06:00:56;;;;;;;27.60;13.35;;;0.90;99.90;;;;;;5084309;28;20087;-77
2023/02/14 06:03:23;;;;;;;23.95;11.90;;;0.90;99.90;;;;;;5092498;28;20577;-77
2023/02/14 06:05:50;;;;;;;23.15;10.70;;;1.60;99.90;;;;;;5077385;28;20052;-77
2023/02/14 06:08:16;;;;;;;25.83;11.98;;;0.80;99.90;;;;;;5088998;28;20040;-77
2023/02/14 06:10:43;;;;;;;26.63;12.32;;;0.80;99.90;;;;;;5072918;28;20078;-77
2023/02/14 06:13:10;;;;;;;25.75;11.73;;;1.20;99.90;;;;;;5055885;28;20036;-77
2023/02/14 06:15:37;;;;;;;27.65;12.13;;;0.90;99.90;;;;;;5065495;28;20120;-77
2023/02/14 06:18:05;;;;;;;25.08;11.30;;;0.70;99.90;;;;;;5088574;28;20834;-77
2023/02/14 06:20:31;;;;;;;28.23;12.10;;;0.70;99.90;;;;;;5088845;28;20036;-77
2023/02/14 06:22:58;;;;;;;28.00;12.05;;;0.70;99.90;;;;;;5088763;28;20044;-77
2023/02/14 06:25:25;;;;;;;23.85;11.85;;;1.40;99.90;;;;;;5088650;28;20401;-77
2023/02/14 06:27:56;;;;;;;26.98;12.68;;;0.70;99.90;;;;;;5075368;28;20076;-77
2023/02/14 06:30:22;;;;;;;23.92;11.93;;;1.40;99.90;;;;;;5091730;28;20074;-77
2023/02/14 06:32:50;;;;;;;25.08;11.13;;;0.70;99.90;;;;;;5092263;28;20122;-77
2023/02/14 06:35:17;;;;;;;27.83;12.00;;;0.70;99.90;;;;;;5075078;28;20137;-77
2023/02/14 06:37:44;;;;;;;24.75;11.95;;;0.70;99.90;;;;;;5071912;28;20067;-77
2023/02/14 06:40:11;;;;;;;23.90;9.18;;;0.80;99.90;;;;;;5088281;28;20795;-77
2023/02/14 06:42:38;;;;;;;21.42;8.60;;;0.70;99.90;;;;;;5071997;28;20082;-77
2023/02/14 06:45:06;;;;;;;20.98;7.32;;;0.80;99.90;;;;;;5071579;28;20117;-77
2023/02/14 06:47:32;;;;;;;17.45;7.78;;;0.80;99.90;;;;;;5088097;28;20090;-77
2023/02/14 06:50:00;;;;;;;18.73;8.07;;;0.90;99.90;;;;;;5072096;28;20040;-77
2023/02/14 06:52:27;;;;;;;17.40;7.32;;;0.90;99.90;;;;;;5071586;28;20044;-77
2023/02/14 06:54:53;;;;;;;16.88;7.07;;;0.90;99.90;;;;;;5054645;28;20040;-77
2023/02/14 06:57:20;;;;;;;14.57;8.07;;;1.00;99.90;;;;;;5088338;28;20090;-78
2023/02/14 06:59:47;;;;;;;18.95;7.28;;;0.90;99.90;;;;;;5041801;28;20140;-77
2023/02/14 07:02:13;;;;;;;40.42;7.05;;;0.90;99.90;;;;;;5031860;28;20056;-77
2023/02/14 07:04:40;;;;;;;23.10;6.68;;;1.00;99.90;;;;;;5048505;28;20049;-77
2023/02/14 07:07:07;;;;;;;18.60;6.90;;;1.00;99.90;;;;;;5016370;28;20484;-77
2023/02/14 07:09:33;;;;;;;17.80;6.18;;;1.00;99.90;;;;;;5045487;28;20095;-77
2023/02/14 07:12:00;;;;;;;24.75;6.20;;;1.10;99.90;;;;;;5038248;28;20041;-77
2023/02/14 07:14:27;;;;;;;15.00;5.90;;;1.10;99.90;;;;;;5071287;28;20045;-77
2023/02/14 07:16:53;;;;;;;19.08;5.68;;;1.10;99.90;;;;;;5052634;28;20095;-78
2023/02/14 07:19:20;;;;;;;18.63;6.70;;;1.30;99.90;;;;;;5057145;28;20045;-77
2023/02/14 07:21:47;;;;;;;25.15;6.53;;;1.30;99.90;;;;;;5048226;28;20048;-78
2023/02/14 07:24:14;;;;;;;17.85;5.55;;;1.10;99.90;;;;;;5082716;28;20048;-78
2023/02/14 07:26:40;;;;;;;12.57;5.78;;;1.10;99.90;;;;;;5045610;28;20541;-78
2023/02/14 07:29:07;;;;;;;13.50;6.20;;;2.10;99.90;;;;;;5036423;28;20063;-78
2023/02/14 07:31:34;;;;;;;16.20;6.90;;;1.50;99.90;;;;;;5059969;28;20033;-78
2023/02/14 07:34:00;;;;;;;13.23;5.60;;;1.60;99.90;;;;;;5066228;28;20069;-78
2023/02/14 07:36:27;;;;;;;13.93;6.88;;;1.70;99.90;;;;;;5032799;28;20041;-78
2023/02/14 07:38:57;;;;;;;12.30;5.75;;;1.20;99.90;;;;;;5070472;28;20512;-78
2023/02/14 07:41:24;;;;;;;13.30;5.38;;;1.20;99.90;;;;;;5076908;28;20080;-78
2023/02/14 07:43:51;;;;;;;15.07;5.25;;;1.20;99.90;;;;;;5060118;28;20077;-79
2023/02/14 07:46:17;;;;;;;14.13;6.07;;;1.20;99.90;;;;;;5051803;28;20453;-79
2023/02/14 07:48:44;;;;;;;20.00;6.40;;;1.20;99.90;;;;;;5035744;28;20047;-79
2023/02/14 07:51:11;;;;;;;12.75;5.20;;;1.30;99.90;;;;;;5035965;28;20041;-79
2023/02/14 07:53:38;;;;;;;10.80;5.40;;;1.30;99.90;;;;;;5065455;28;20044;-79
2023/02/14 07:56:04;;;;;;;11.48;5.30;;;1.40;99.90;;;;;;5037015;28;20049;-79
2023/02/14 07:58:31;;;;;;;13.18;5.95;;;1.30;99.90;;;;;;5052543;28;20057;-79
2023/02/14 08:00:58;;;;;;;10.48;5.43;;;1.30;99.90;;;;;;5051963;28;20084;-78
2023/02/14 08:03:25;;;;;;;17.67;6.80;;;1.50;99.90;;;;;;5026436;28;20039;-80
2023/02/14 08:05:55;;;;;;;22.30;6.93;;;1.70;99.90;;;;;;5070457;28;20049;-79
2023/02/14 08:08:27;;;;;;;16.20;6.28;;;1.50;99.90;;;;;;5037635;28;20037;-79
2023/02/14 08:10:54;;;;;;;16.15;7.05;;;1.50;99.90;;;;;;5057272;28;20045;-79
2023/02/14 08:13:21;;;;;;;14.48;6.60;;;1.60;99.90;;;;;;5051032;28;20413;-79
2023/02/14 08:18:38;;;;;;;19.80;6.95;;;1.60;99.90;;;;;;5056558;28;20044;-79
2023/02/14 08:21:07;;;;;;;15.65;7.05;;;1.70;99.90;;;;;;5051776;28;20052;-79
2023/02/14 08:23:34;;;;;;;16.40;7.57;;;1.70;99.90;;;;;;5061295;28;20032;-79
2023/02/14 08:26:01;;;;;;;18.48;7.78;;;1.80;99.90;;;;;;5087320;28;20041;-79
2023/02/14 08:28:28;;;;;;;16.27;6.90;;;1.80;99.90;;;;;;5078860;28;20501;-79
2023/02/14 08:30:55;;;;;;;15.57;7.03;;;1.90;99.90;;;;;;5071072;28;20112;-79
2023/02/14 08:33:21;;;;;;;15.27;7.10;;;1.90;99.90;;;;;;5054268;28;20129;-79
2023/02/14 08:35:50;;;;;;;12.98;6.88;;;2.40;99.90;;;;;;5037622;28;20440;-79
2023/02/14 08:38:17;;;;;;;12.40;6.55;;;2.60;99.90;;;;;;5071020;28;20071;-80
2023/02/14 08:40:44;;;;;;;18.52;7.70;;;2.00;99.90;;;;;;5034125;28;20043;-80
2023/02/14 08:43:10;;;;;;;20.38;7.85;;;2.10;99.90;;;;;;5034341;28;20037;-80
2023/02/14 08:45:40;;;;;;;17.73;7.50;;;2.10;99.90;;;;;;5033691;28;20536;-80
2023/02/14 08:48:10;;;;;;;16.80;6.72;;;2.10;99.90;;;;;;5077272;28;20119;-80
2023/02/14 08:50:40;;;;;;;17.52;7.45;;;2.20;99.90;;;;;;5067996;28;20045;-80
2023/02/14 08:53:12;;;;;;;18.27;8.32;;;2.20;99.90;;;;;;5060125;28;20048;-80
2023/02/14 08:55:39;;;;;;;19.42;8.48;;;2.30;99.90;;;;;;5077619;28;20107;-80
2023/02/14 08:58:06;;;;;;;19.65;8.65;;;2.40;99.90;;;;;;5059292;28;20120;-80
2023/02/14 09:00:33;;;;;;;20.88;8.70;;;2.90;99.90;;;;;;5050453;28;20474;-79
2023/02/14 09:03:00;;;;;;;20.63;8.68;;;2.50;99.90;;;;;;5062681;28;20037;-79
2023/02/14 09:05:27;;;;;;;18.02;7.97;;;2.60;99.90;;;;;;5057961;28;20041;-80
2023/02/14 09:07:55;;;;;;;20.90;9.50;;;2.70;99.90;;;;;;5033545;28;20041;-80
2023/02/14 09:10:23;;;;;;;21.27;8.48;;;2.70;99.90;;;;;;5035710;28;20033;-79
2023/02/14 09:12:50;;;;;;;20.00;9.63;;;3.00;99.90;;;;;;5086757;28;20045;-80
2023/02/14 09:15:17;;;;;;;17.27;8.25;;;2.90;99.90;;;;;;5049812;28;20087;-79
2023/02/14 09:17:44;;;;;;;17.92;8.93;;;3.00;99.90;;;;;;5033745;28;20049;-79
2023/02/14 09:20:12;;;;;;;21.52;9.13;;;3.00;99.90;;;;;;5033695;28;20535;-80
2023/02/14 09:22:39;;;;;;;20.20;9.00;;;3.10;99.90;;;;;;5047725;28;20041;-80
2023/02/14 09:25:06;;;;;;;21.75;9.05;;;3.70;99.90;;;;;;5053456;28;20048;-80
2023/02/14 09:27:33;;;;;;;19.55;9.77;;;3.30;99.90;;;;;;5052754;28;20045;-80
2023/02/14 09:30:00;;;;;;;19.80;9.40;;;3.40;99.90;;;;;;5069895;28;20118;-80
2023/02/14 09:32:27;;;;;;;21.15;9.82;;;3.40;99.90;;;;;;5035663;28;20037;-79
2023/02/14 09:34:54;;;;;;;20.58;9.10;;;3.60;99.90;;;;;;5037288;28;20036;-80
2023/02/14 09:40:07;;;;;;;20.33;9.88;;;3.70;99.90;;;;;;5074285;28;20163;-80
2023/02/14 09:43:22;;;;;;;17.77;8.88;;;3.80;99.90;;;;;;5033630;28;20049;-80
2023/02/14 09:45:55;;;;;;;24.98;10.20;;;3.90;99.90;;;;;;4986465;28;20043;-80
2023/02/14 09:48:32;;;;;;;23.40;10.15;;;4.00;99.90;;;;;;5062178;28;20099;-80
2023/02/14 09:51:04;;;;;;;19.98;10.00;;;4.10;99.90;;;;;;5055640;28;20034;-80
2023/02/14 09:53:42;;;;;;;23.48;11.10;;;4.20;99.90;;;;;;5053305;28;20045;-80
2023/02/14 09:56:10;;;;;;;22.38;11.07;;;4.30;99.90;;;;;;5062737;28;20520;-80
2023/02/14 09:59:14;;;;;;;21.85;9.52;;;4.40;99.90;;;;;;5053378;28;20064;-80
2023/02/14 10:01:47;;;;;;;25.90;10.98;;;4.50;99.90;;;;;;5063580;28;20509;-80
2023/02/14 10:04:49;;;;;;;22.63;9.55;;;4.70;99.90;;;;;;5087661;28;20040;-80
2023/02/14 10:07:34;;;;;;;25.65;11.30;;;4.80;99.90;;;;;;4954613;28;20412;-80
2023/02/14 10:10:25;;;;;;;27.17;11.70;;;4.90;99.90;;;;;;5082282;28;20493;-80
2023/02/14 10:12:54;;;;;;;22.52;11.60;;;5.10;99.90;;;;;;5072549;28;20450;-80
2023/02/14 10:15:26;;;;;;;23.52;11.00;;;5.10;99.90;;;;;;5072663;28;20052;-80
2023/02/14 10:18:20;;;;;;;23.30;11.15;;;5.20;99.90;;;;;;5082417;28;20044;-81
2023/02/14 10:20:59;;;;;;;19.67;10.60;;;5.40;99.90;;;;;;5088549;28;20402;-80
2023/02/14 10:23:36;;;;;;;24.27;11.90;;;5.50;99.90;;;;;;5072273;28;20054;-80
2023/02/14 10:26:09;;;;;;;23.00;12.20;;;5.50;99.90;;;;;;5071934;28;20489;-80
2023/02/14 10:28:50;;;;;;;22.50;12.18;;;5.60;99.90;;;;;;5073431;28;20047;-80
2023/02/14 10:31:26;;;;;;;24.23;11.70;;;5.70;99.90;;;;;;5104434;28;20044;-80
2023/02/14 10:34:20;;;;;;;23.98;11.63;;;5.80;99.90;;;;;;5079579;28;20085;-80
2023/02/14 10:37:28;;;;;;;26.00;12.57;;;5.90;99.90;;;;;;5089621;28;20052;-80
2023/02/14 10:40:18;;;;;;;24.00;11.63;;;6.00;99.90;;;;;;5070237;28;20063;-80
2023/02/14 10:42:52;;;;;;;25.80;12.10;;;6.10;99.90;;;;;;5091721;28;20044;-80
2023/02/14 10:45:40;;;;;;;22.40;11.80;;;6.10;99.90;;;;;;5091748;28;20554;-80
2023/02/14 10:48:20;;;;;;;23.70;12.10;;;6.20;99.90;;;;;;5075244;28;20085;-80
2023/02/14 10:51:19;;;;;;;22.08;11.68;;;6.30;99.90;;;;;;5091511;28;20044;-80
2023/02/14 10:54:19;;;;;;;21.77;11.45;;;6.30;99.90;;;;;;5074536;28;20411;-81
2023/02/14 10:57:02;;;;;;;22.33;11.68;;;6.40;99.90;;;;;;5092129;28;20039;-80
2023/02/14 10:59:44;;;;;;;24.25;12.60;;;6.60;99.90;;;;;;5079609;28;20500;-80
2023/02/14 11:02:14;;;;;;;27.17;12.60;;;6.50;99.90;;;;;;5088660;28;20037;-81
2023/02/14 11:04:42;;;;;;;23.83;12.45;;;6.60;99.90;;;;;;5071340;28;20127;-80
2023/02/14 11:07:18;;;;;;;22.58;11.63;;;6.70;99.90;;;;;;5088028;28;20404;-81
2023/02/14 11:09:45;;;;;;;22.13;12.35;;;6.80;99.90;;;;;;5091071;28;20178;-80
2023/02/14 11:12:37;;;;;;;25.35;12.20;;;6.80;99.90;;;;;;5062900;28;20511;-80
2023/02/14 11:15:32;;;;;;;24.42;13.00;;;6.90;99.90;;;;;;5082543;28;20040;-79
2023/02/14 11:18:21;;;;;;;21.42;11.80;;;7.00;99.90;;;;;;5071630;28;20124;-80
2023/02/14 11:21:02;;;;;;;27.48;12.68;;;7.10;99.90;;;;;;5099563;28;20067;-80
2023/02/14 11:23:49;;;;;;;24.65;12.60;;;7.10;99.90;;;;;;5077914;28;20058;-80
2023/02/14 11:26:32;;;;;;;25.55;12.73;;;7.10;99.90;;;;;;5085645;28;20405;-80
2023/02/14 11:29:11;;;;;;;23.40;12.18;;;7.10;99.90;;;;;;5104718;28;20075;-80
2023/02/14 11:31:39;;;;;;;23.20;12.50;;;7.20;99.90;;;;;;5091476;28;20044;-79
2023/02/14 11:34:27;;;;;;;25.95;13.07;;;7.30;99.90;;;;;;5071554;28;20040;-79
2023/02/14 11:36:54;;;;;;;26.02;13.20;;;7.40;99.90;;;;;;5071434;28;20037;-79
2023/02/14 11:39:29;;;;;;;22.38;12.35;;;7.50;99.90;;;;;;5068878;28;20404;-80
2023/02/14 11:41:59;;;;;;;25.93;13.10;;;7.50;99.90;;;;;;5079162;28;20047;-79
2023/02/14 11:44:29;;;;;;;22.88;12.13;;;7.60;99.90;;;;;;5107508;28;20650;-79
2023/02/14 11:46:57;;;;;;;23.98;12.27;;;7.60;99.90;;;;;;5085065;28;20040;-80
2023/02/14 11:49:27;;;;;;;25.10;13.10;;;7.70;99.90;;;;;;5108090;28;20126;-80
2023/02/14 11:51:55;;;;;;;24.48;13.02;;;7.70;99.90;;;;;;5091775;28;20036;-80
2023/02/14 11:54:29;;;;;;;20.85;11.88;;;7.80;99.90;;;;;;5091288;28;20113;-79
2023/02/14 11:57:06;;;;;;;28.20;13.15;;;7.90;99.90;;;;;;5074564;28;20049;-79
2023/02/14 11:59:53;;;;;;;25.52;12.80;;;8.00;99.90;;;;;;5074732;28;20052;-79
2023/02/14 12:02:29;;;;;;;26.02;12.88;;;8.00;99.90;;;;;;5074665;28;20075;-79
2023/02/14 12:05:15;;;;;;;23.40;12.98;;;8.10;99.90;;;;;;5087215;28;20039;-79
2023/02/14 12:07:44;;;;;;;26.07;12.43;;;8.10;99.90;;;;;;5091536;28;20580;-79
2023/02/14 12:10:14;;;;;;;26.00;12.50;;;8.20;99.90;;;;;;5091324;28;20283;-79
2023/02/14 12:12:54;;;;;;;23.67;12.60;;;8.20;99.90;;;;;;5080403;28;20496;-80
2023/02/14 12:15:26;;;;;;;24.35;12.43;;;8.20;99.90;;;;;;5084852;28;20098;-79
2023/02/14 12:18:01;;;;;;;24.70;13.05;;;8.30;99.90;;;;;;5079251;28;20047;-79
2023/02/14 12:20:47;;;;;;;23.73;12.50;;;8.30;99.90;;;;;;5084739;28;20043;-79
2023/02/14 12:23:49;;;;;;;24.85;12.60;;;8.40;99.90;;;;;;5074390;28;20044;-79
2023/02/14 12:26:49;;;;;;;25.13;13.18;;;8.40;99.90;;;;;;5077748;28;20552;-79
2023/02/14 12:29:48;;;;;;;25.95;12.98;;;8.50;99.90;;;;;;5095023;28;20044;-80
2023/02/14 12:32:26;;;;;;;27.77;12.98;;;8.50;99.90;;;;;;5073571;28;20040;-79
2023/02/14 12:35:13;;;;;;;27.42;12.65;;;8.60;99.90;;;;;;5094316;28;20039;-80
2023/02/14 12:38:21;;;;;;;24.67;12.98;;;8.60;99.90;;;;;;5080583;28;20531;-79
2023/02/14 12:41:00;;;;;;;22.92;12.10;;;8.70;99.90;;;;;;5090607;28;20566;-80
2023/02/14 12:43:50;;;;;;;25.20;13.35;;;8.70;99.90;;;;;;5076037;28;20044;-79
2023/02/14 12:46:25;;;;;;;24.52;11.80;;;8.70;99.90;;;;;;5093804;28;20079;-79
2023/02/14 12:49:21;;;;;;;27.55;12.15;;;8.80;99.90;;;;;;5090814;28;20123;-79
2023/02/14 12:52:06;;;;;;;24.88;13.65;;;8.80;99.90;;;;;;5073971;28;20041;-79
2023/02/14 12:55:03;;;;;;;28.45;13.05;;;8.90;99.90;;;;;;5085976;28;20064;-79
2023/02/14 12:57:51;;;;;;;26.40;12.68;;;8.90;99.90;;;;;;5053925;28;20047;-80
2023/02/14 13:00:43;;;;;;;24.20;12.48;;;8.90;99.90;;;;;;5087932;28;20054;-79
2023/02/14 13:03:26;;;;;;;24.08;12.90;;;9.00;99.90;;;;;;5094181;28;20412;-80
2023/02/14 13:06:25;;;;;;;29.02;14.15;;;9.00;99.90;;;;;;5083705;28;20032;-79
2023/02/14 13:09:03;;;;;;;28.73;12.50;;;9.10;99.90;;;;;;5081253;28;20044;-79
2023/02/14 13:11:51;;;;;;;22.65;12.43;;;9.10;99.90;;;;;;5073837;28;20492;-79
2023/02/14 13:14:39;;;;;;;25.40;14.57;;;9.10;99.90;;;;;;5085104;28;20040;-79
2023/02/14 13:17:43;;;;;;;29.02;14.70;;;9.20;99.90;;;;;;5093294;28;20044;-79
2023/02/14 13:20:47;;;;;;;29.60;13.70;;;9.20;99.90;;;;;;5078472;28;20807;-79
2023/02/14 13:23:33;;;;;;;25.00;13.48;;;9.20;99.90;;;;;;5103741;28;20122;-79
2023/02/14 13:26:10;;;;;;;;;;;9.30;99.90;;;;;;5073703;28;20044;-79
2023/02/14 13:28:41;;;;;;;26.48;13.63;;;9.30;99.90;;;;;;5072889;28;19921;-79
2023/02/14 13:31:10;;;;;;;26.55;13.95;;;9.40;99.90;;;;;;5076498;28;20040;-79
2023/02/14 13:33:42;;;;;;;26.52;14.75;;;9.40;99.90;;;;;;5091153;28;20048;-79
2023/02/14 13:36:12;;;;;;;26.02;13.90;;;9.40;99.90;;;;;;5095110;28;20416;-79
2023/02/14 13:38:49;;;;;;;28.75;13.80;;;9.40;99.90;;;;;;5073051;28;20511;-79